sensor_id;sensor_type;location;lat;lon;timestamp;temperature;humidity
7496;DHT22;3789;47.064;15.482;2022-07-09T00:01:08;15.70;94.20
7496;DHT22;3789;47.064;15.482;2022-07-09T00:03:37;15.70;94.40
7496;DHT22;3789;47.064;15.482;2022-07-09T00:06:07;15.70;94.30
7496;DHT22;3789;47.064;15.482;2022-07-09T00:08:35;15.70;94.30
7496;DHT22;3789;47.064;15.482;2022-07-09T00:11:04;15.60;94.50
7496;DHT22;3789;47.064;15.482;2022-07-09T00:13:35;15.50;94.10
7496;DHT22;3789;47.064;15.482;2022-07-09T00:16:03;15.50;94.30
7496;DHT22;3789;47.064;15.482;2022-07-09T00:18:37;15.50;95.00
7496;DHT22;3789;47.064;15.482;2022-07-09T00:21:07;15.40;94.90
7496;DHT22;3789;47.064;15.482;2022-07-09T00:23:38;15.40;94.70
7496;DHT22;3789;47.064;15.482;2022-07-09T00:26:14;15.40;94.90
7496;DHT22;3789;47.064;15.482;2022-07-09T00:28:41;15.50;94.00
7496;DHT22;3789;47.064;15.482;2022-07-09T00:31:14;15.50;94.80
7496;DHT22;3789;47.064;15.482;2022-07-09T00:33:43;15.50;95.10
7496;DHT22;3789;47.064;15.482;2022-07-09T00:36:15;15.40;95.40
7496;DHT22;3789;47.064;15.482;2022-07-09T00:38:45;15.50;95.70
7496;DHT22;3789;47.064;15.482;2022-07-09T00:41:22;15.40;95.80
7496;DHT22;3789;47.064;15.482;2022-07-09T00:43:50;15.30;96.30
7496;DHT22;3789;47.064;15.482;2022-07-09T00:46:20;15.30;96.30
7496;DHT22;3789;47.064;15.482;2022-07-09T00:48:53;15.30;96.20
7496;DHT22;3789;47.064;15.482;2022-07-09T00:51:23;15.20;96.60
7496;DHT22;3789;47.064;15.482;2022-07-09T00:54:01;15.20;96.60
7496;DHT22;3789;47.064;15.482;2022-07-09T00:56:32;15.20;96.70
7496;DHT22;3789;47.064;15.482;2022-07-09T00:59:01;15.10;96.80
7496;DHT22;3789;47.064;15.482;2022-07-09T01:01:33;15.10;96.80
7496;DHT22;3789;47.064;15.482;2022-07-09T01:04:07;15.10;96.80
7496;DHT22;3789;47.064;15.482;2022-07-09T01:06:36;15.10;97.00
7496;DHT22;3789;47.064;15.482;2022-07-09T01:09:12;15.10;97.10
7496;DHT22;3789;47.064;15.482;2022-07-09T01:11:41;15.00;97.20
7496;DHT22;3789;47.064;15.482;2022-07-09T01:14:11;15.00;97.20
7496;DHT22;3789;47.064;15.482;2022-07-09T01:16:40;15.00;96.90
7496;DHT22;3789;47.064;15.482;2022-07-09T01:19:09;15.00;96.90
7496;DHT22;3789;47.064;15.482;2022-07-09T01:21:36;14.90;96.80
7496;DHT22;3789;47.064;15.482;2022-07-09T01:24:08;14.90;96.80
7496;DHT22;3789;47.064;15.482;2022-07-09T01:26:36;14.80;97.00
7496;DHT22;3789;47.064;15.482;2022-07-09T01:29:23;14.80;97.10
7496;DHT22;3789;47.064;15.482;2022-07-09T01:32:02;14.80;97.40
7496;DHT22;3789;47.064;15.482;2022-07-09T01:34:29;14.80;97.70
7496;DHT22;3789;47.064;15.482;2022-07-09T01:36:56;14.80;97.50
7496;DHT22;3789;47.064;15.482;2022-07-09T01:39:23;14.80;97.20
7496;DHT22;3789;47.064;15.482;2022-07-09T01:41:50;14.80;97.50
7496;DHT22;3789;47.064;15.482;2022-07-09T01:44:17;14.70;97.40
7496;DHT22;3789;47.064;15.482;2022-07-09T01:46:45;14.80;97.60
7496;DHT22;3789;47.064;15.482;2022-07-09T01:49:12;14.80;97.60
7496;DHT22;3789;47.064;15.482;2022-07-09T01:51:39;14.70;97.70
7496;DHT22;3789;47.064;15.482;2022-07-09T01:54:06;14.80;97.60
7496;DHT22;3789;47.064;15.482;2022-07-09T01:56:34;14.70;97.60
7496;DHT22;3789;47.064;15.482;2022-07-09T01:59:02;14.70;97.80
7496;DHT22;3789;47.064;15.482;2022-07-09T02:01:29;14.70;97.90
7496;DHT22;3789;47.064;15.482;2022-07-09T02:03:56;14.70;98.20
7496;DHT22;3789;47.064;15.482;2022-07-09T02:06:23;14.70;98.00
7496;DHT22;3789;47.064;15.482;2022-07-09T02:08:50;14.70;97.80
7496;DHT22;3789;47.064;15.482;2022-07-09T02:11:19;14.70;98.10
7496;DHT22;3789;47.064;15.482;2022-07-09T02:13:46;14.70;98.00
7496;DHT22;3789;47.064;15.482;2022-07-09T02:16:13;14.60;97.90
7496;DHT22;3789;47.064;15.482;2022-07-09T02:18:40;14.60;98.10
7496;DHT22;3789;47.064;15.482;2022-07-09T02:21:07;14.70;98.70
7496;DHT22;3789;47.064;15.482;2022-07-09T02:23:35;14.70;99.00
7496;DHT22;3789;47.064;15.482;2022-07-09T02:26:02;14.70;99.20
7496;DHT22;3789;47.064;15.482;2022-07-09T02:28:29;14.70;99.30
7496;DHT22;3789;47.064;15.482;2022-07-09T02:30:57;14.60;99.20
7496;DHT22;3789;47.064;15.482;2022-07-09T02:33:24;14.60;99.20
7496;DHT22;3789;47.064;15.482;2022-07-09T02:35:57;14.60;99.10
7496;DHT22;3789;47.064;15.482;2022-07-09T02:38:24;14.60;99.20
7496;DHT22;3789;47.064;15.482;2022-07-09T02:40:52;14.60;99.20
7496;DHT22;3789;47.064;15.482;2022-07-09T02:43:19;14.70;99.70
7496;DHT22;3789;47.064;15.482;2022-07-09T02:45:46;14.70;99.90
7496;DHT22;3789;47.064;15.482;2022-07-09T02:48:13;14.60;99.90
7496;DHT22;3789;47.064;15.482;2022-07-09T02:50:40;14.50;99.90
7496;DHT22;3789;47.064;15.482;2022-07-09T02:53:08;14.50;99.90
7496;DHT22;3789;47.064;15.482;2022-07-09T02:55:35;14.30;99.90
7496;DHT22;3789;47.064;15.482;2022-07-09T02:58:02;14.00;99.90
7496;DHT22;3789;47.064;15.482;2022-07-09T03:00:29;13.70;99.90
7496;DHT22;3789;47.064;15.482;2022-07-09T03:02:56;13.50;99.90
7496;DHT22;3789;47.064;15.482;2022-07-09T03:05:24;13.30;99.90
7496;DHT22;3789;47.064;15.482;2022-07-09T03:07:51;13.10;99.90
7496;DHT22;3789;47.064;15.482;2022-07-09T03:10:18;13.10;99.90
7496;DHT22;3789;47.064;15.482;2022-07-09T03:12:45;13.20;99.90
7496;DHT22;3789;47.064;15.482;2022-07-09T03:15:12;13.30;99.90
7496;DHT22;3789;47.064;15.482;2022-07-09T03:17:44;13.40;99.90
7496;DHT22;3789;47.064;15.482;2022-07-09T03:20:12;13.50;99.90
7496;DHT22;3789;47.064;15.482;2022-07-09T03:22:40;13.40;99.90
7496;DHT22;3789;47.064;15.482;2022-07-09T03:25:08;13.30;99.90
7496;DHT22;3789;47.064;15.482;2022-07-09T03:27:35;13.30;99.90
7496;DHT22;3789;47.064;15.482;2022-07-09T03:30:03;13.20;99.90
7496;DHT22;3789;47.064;15.482;2022-07-09T03:32:31;13.30;99.90
7496;DHT22;3789;47.064;15.482;2022-07-09T03:34:58;13.40;99.90
7496;DHT22;3789;47.064;15.482;2022-07-09T03:37:25;13.40;99.90
7496;DHT22;3789;47.064;15.482;2022-07-09T03:39:53;13.40;99.90
7496;DHT22;3789;47.064;15.482;2022-07-09T03:42:20;13.10;99.90
7496;DHT22;3789;47.064;15.482;2022-07-09T03:44:47;13.20;99.90
7496;DHT22;3789;47.064;15.482;2022-07-09T03:47:14;13.30;99.90
7496;DHT22;3789;47.064;15.482;2022-07-09T03:49:41;13.60;99.90
7496;DHT22;3789;47.064;15.482;2022-07-09T03:52:09;14.10;99.90
7496;DHT22;3789;47.064;15.482;2022-07-09T03:54:44;15.00;99.90
7496;DHT22;3789;47.064;15.482;2022-07-09T03:57:11;15.80;99.90
7496;DHT22;3789;47.064;15.482;2022-07-09T03:59:38;16.50;99.90
7496;DHT22;3789;47.064;15.482;2022-07-09T04:02:05;17.00;99.90
7496;DHT22;3789;47.064;15.482;2022-07-09T04:04:39;17.60;99.90
7496;DHT22;3789;47.064;15.482;2022-07-09T04:07:06;18.00;99.90
7496;DHT22;3789;47.064;15.482;2022-07-09T04:09:33;17.70;99.90
7496;DHT22;3789;47.064;15.482;2022-07-09T04:12:00;18.10;99.90
7496;DHT22;3789;47.064;15.482;2022-07-09T04:14:28;18.30;99.90
7496;DHT22;3789;47.064;15.482;2022-07-09T04:16:55;18.70;99.90
7496;DHT22;3789;47.064;15.482;2022-07-09T04:19:22;18.70;99.90
7496;DHT22;3789;47.064;15.482;2022-07-09T04:21:50;18.60;99.90
7496;DHT22;3789;47.064;15.482;2022-07-09T04:24:17;19.40;99.70
7496;DHT22;3789;47.064;15.482;2022-07-09T04:26:44;19.80;99.60
7496;DHT22;3789;47.064;15.482;2022-07-09T04:29:11;20.30;98.70
7496;DHT22;3789;47.064;15.482;2022-07-09T04:31:38;21.00;97.80
7496;DHT22;3789;47.064;15.482;2022-07-09T04:34:05;21.20;96.70
7496;DHT22;3789;47.064;15.482;2022-07-09T04:36:32;21.40;96.40
7496;DHT22;3789;47.064;15.482;2022-07-09T04:39:00;21.30;97.10
7496;DHT22;3789;47.064;15.482;2022-07-09T04:41:27;21.40;96.50
7496;DHT22;3789;47.064;15.482;2022-07-09T04:43:55;21.70;96.30
7496;DHT22;3789;47.064;15.482;2022-07-09T04:46:23;21.90;95.60
7496;DHT22;3789;47.064;15.482;2022-07-09T04:48:52;22.50;95.10
7496;DHT22;3789;47.064;15.482;2022-07-09T04:51:19;22.90;94.40
7496;DHT22;3789;47.064;15.482;2022-07-09T04:53:47;23.10;94.60
7496;DHT22;3789;47.064;15.482;2022-07-09T04:56:14;23.00;94.30
7496;DHT22;3789;47.064;15.482;2022-07-09T04:58:41;22.80;94.10
7496;DHT22;3789;47.064;15.482;2022-07-09T05:01:19;22.80;94.10
7496;DHT22;3789;47.064;15.482;2022-07-09T05:03:47;22.50;93.30
7496;DHT22;3789;47.064;15.482;2022-07-09T05:06:18;22.10;94.70
7496;DHT22;3789;47.064;15.482;2022-07-09T05:08:45;21.90;95.30
7496;DHT22;3789;47.064;15.482;2022-07-09T05:11:14;21.70;96.00
7496;DHT22;3789;47.064;15.482;2022-07-09T05:13:44;21.60;95.80
7496;DHT22;3789;47.064;15.482;2022-07-09T05:16:13;21.50;96.10
7496;DHT22;3789;47.064;15.482;2022-07-09T05:18:40;21.30;96.10
7496;DHT22;3789;47.064;15.482;2022-07-09T05:21:08;21.50;95.60
7496;DHT22;3789;47.064;15.482;2022-07-09T05:23:35;21.50;95.00
7496;DHT22;3789;47.064;15.482;2022-07-09T05:26:03;21.50;95.80
7496;DHT22;3789;47.064;15.482;2022-07-09T05:28:30;21.10;96.10
7496;DHT22;3789;47.064;15.482;2022-07-09T05:30:58;21.30;96.30
7496;DHT22;3789;47.064;15.482;2022-07-09T05:33:45;21.40;96.60
7496;DHT22;3789;47.064;15.482;2022-07-09T05:36:16;21.40;95.90
7496;DHT22;3789;47.064;15.482;2022-07-09T05:38:45;21.40;95.70
7496;DHT22;3789;47.064;15.482;2022-07-09T05:41:14;21.50;96.40
7496;DHT22;3789;47.064;15.482;2022-07-09T05:43:45;21.60;97.60
7496;DHT22;3789;47.064;15.482;2022-07-09T05:46:12;21.80;96.60
7496;DHT22;3789;47.064;15.482;2022-07-09T05:48:39;21.70;96.90
7496;DHT22;3789;47.064;15.482;2022-07-09T05:51:06;21.60;96.70
7496;DHT22;3789;47.064;15.482;2022-07-09T05:53:33;22.00;95.40
7496;DHT22;3789;47.064;15.482;2022-07-09T05:56:01;21.90;96.10
7496;DHT22;3789;47.064;15.482;2022-07-09T05:58:28;22.10;96.10
7496;DHT22;3789;47.064;15.482;2022-07-09T06:00:55;22.10;96.40
7496;DHT22;3789;47.064;15.482;2022-07-09T06:03:22;22.10;96.30
7496;DHT22;3789;47.064;15.482;2022-07-09T06:05:49;22.00;96.50
7496;DHT22;3789;47.064;15.482;2022-07-09T06:08:17;21.90;97.00
7496;DHT22;3789;47.064;15.482;2022-07-09T06:10:44;22.20;96.50
7496;DHT22;3789;47.064;15.482;2022-07-09T06:13:11;22.40;95.30
7496;DHT22;3789;47.064;15.482;2022-07-09T06:15:38;22.60;95.40
7496;DHT22;3789;47.064;15.482;2022-07-09T06:18:05;22.60;95.20
7496;DHT22;3789;47.064;15.482;2022-07-09T06:20:33;22.70;95.00
7496;DHT22;3789;47.064;15.482;2022-07-09T06:23:05;22.80;95.00
7496;DHT22;3789;47.064;15.482;2022-07-09T06:25:33;22.80;94.70
7496;DHT22;3789;47.064;15.482;2022-07-09T06:28:00;22.80;94.70
7496;DHT22;3789;47.064;15.482;2022-07-09T06:30:28;22.70;94.60
7496;DHT22;3789;47.064;15.482;2022-07-09T06:32:55;22.80;94.80
7496;DHT22;3789;47.064;15.482;2022-07-09T06:35:22;22.80;94.20
7496;DHT22;3789;47.064;15.482;2022-07-09T06:37:49;22.60;95.00
7496;DHT22;3789;47.064;15.482;2022-07-09T06:40:16;22.70;95.00
7496;DHT22;3789;47.064;15.482;2022-07-09T06:42:44;22.90;94.50
7496;DHT22;3789;47.064;15.482;2022-07-09T06:45:11;23.10;94.60
7496;DHT22;3789;47.064;15.482;2022-07-09T06:47:38;23.30;94.40
7496;DHT22;3789;47.064;15.482;2022-07-09T06:50:10;23.10;94.60
7496;DHT22;3789;47.064;15.482;2022-07-09T06:52:37;23.20;95.20
7496;DHT22;3789;47.064;15.482;2022-07-09T06:55:05;23.30;95.00
7496;DHT22;3789;47.064;15.482;2022-07-09T06:57:32;23.50;93.90
7496;DHT22;3789;47.064;15.482;2022-07-09T06:59:59;23.50;94.60
7496;DHT22;3789;47.064;15.482;2022-07-09T07:02:27;23.70;95.10
7496;DHT22;3789;47.064;15.482;2022-07-09T07:04:54;23.70;94.60
7496;DHT22;3789;47.064;15.482;2022-07-09T07:07:21;23.70;94.00
7496;DHT22;3789;47.064;15.482;2022-07-09T07:09:48;23.50;92.50
7496;DHT22;3789;47.064;15.482;2022-07-09T07:12:16;23.50;93.10
7496;DHT22;3789;47.064;15.482;2022-07-09T07:14:43;23.70;93.10
7496;DHT22;3789;47.064;15.482;2022-07-09T07:17:10;23.40;92.60
7496;DHT22;3789;47.064;15.482;2022-07-09T07:19:37;23.60;93.30
7496;DHT22;3789;47.064;15.482;2022-07-09T07:22:04;23.80;93.10
7496;DHT22;3789;47.064;15.482;2022-07-09T07:24:31;23.90;93.30
7496;DHT22;3789;47.064;15.482;2022-07-09T07:26:59;24.00;92.30
7496;DHT22;3789;47.064;15.482;2022-07-09T07:29:26;23.90;93.80
7496;DHT22;3789;47.064;15.482;2022-07-09T07:31:54;24.20;92.80
7496;DHT22;3789;47.064;15.482;2022-07-09T07:34:23;23.60;89.90
7496;DHT22;3789;47.064;15.482;2022-07-09T07:36:51;23.40;94.80
7496;DHT22;3789;47.064;15.482;2022-07-09T07:39:19;23.90;92.90
7496;DHT22;3789;47.064;15.482;2022-07-09T07:41:49;24.30;92.10
7496;DHT22;3789;47.064;15.482;2022-07-09T07:44:16;24.50;92.40
7496;DHT22;3789;47.064;15.482;2022-07-09T07:46:43;24.70;91.80
7496;DHT22;3789;47.064;15.482;2022-07-09T07:49:10;24.90;92.00
7496;DHT22;3789;47.064;15.482;2022-07-09T07:51:38;25.10;91.50
7496;DHT22;3789;47.064;15.482;2022-07-09T07:54:05;25.30;91.90
7496;DHT22;3789;47.064;15.482;2022-07-09T07:56:32;25.40;91.20
7496;DHT22;3789;47.064;15.482;2022-07-09T07:59:00;25.60;90.30
7496;DHT22;3789;47.064;15.482;2022-07-09T08:01:27;25.80;91.10
7496;DHT22;3789;47.064;15.482;2022-07-09T08:03:54;25.80;90.20
7496;DHT22;3789;47.064;15.482;2022-07-09T08:06:21;25.60;89.10
7496;DHT22;3789;47.064;15.482;2022-07-09T08:08:51;25.40;90.00
7496;DHT22;3789;47.064;15.482;2022-07-09T08:11:18;25.20;89.10
7496;DHT22;3789;47.064;15.482;2022-07-09T08:13:46;25.30;90.90
7496;DHT22;3789;47.064;15.482;2022-07-09T08:16:13;25.20;90.30
7496;DHT22;3789;47.064;15.482;2022-07-09T08:18:40;25.10;90.20
7496;DHT22;3789;47.064;15.482;2022-07-09T08:21:08;25.00;89.90
7496;DHT22;3789;47.064;15.482;2022-07-09T08:23:35;25.10;90.00
7496;DHT22;3789;47.064;15.482;2022-07-09T08:26:28;25.10;91.00
7496;DHT22;3789;47.064;15.482;2022-07-09T08:28:56;25.30;89.00
7496;DHT22;3789;47.064;15.482;2022-07-09T08:31:24;25.40;88.90
7496;DHT22;3789;47.064;15.482;2022-07-09T08:33:52;25.40;87.50
7496;DHT22;3789;47.064;15.482;2022-07-09T08:36:19;25.40;88.50
7496;DHT22;3789;47.064;15.482;2022-07-09T08:38:46;25.40;87.20
7496;DHT22;3789;47.064;15.482;2022-07-09T08:41:18;25.10;89.90
7496;DHT22;3789;47.064;15.482;2022-07-09T08:43:53;24.00;85.70
7496;DHT22;3789;47.064;15.482;2022-07-09T08:46:20;23.30;90.20
7496;DHT22;3789;47.064;15.482;2022-07-09T08:48:49;23.30;89.10
7496;DHT22;3789;47.064;15.482;2022-07-09T08:51:17;23.60;92.60
7496;DHT22;3789;47.064;15.482;2022-07-09T08:53:46;23.90;90.50
7496;DHT22;3789;47.064;15.482;2022-07-09T08:56:13;23.60;88.40
7496;DHT22;3789;47.064;15.482;2022-07-09T08:58:41;23.10;87.90
7496;DHT22;3789;47.064;15.482;2022-07-09T09:01:13;23.30;91.00
7496;DHT22;3789;47.064;15.482;2022-07-09T09:03:45;23.70;90.30
7496;DHT22;3789;47.064;15.482;2022-07-09T09:06:13;23.70;92.50
7496;DHT22;3789;47.064;15.482;2022-07-09T09:08:42;24.10;88.70
7496;DHT22;3789;47.064;15.482;2022-07-09T09:11:20;23.90;87.90
7496;DHT22;3789;47.064;15.482;2022-07-09T09:13:51;23.70;85.30
7496;DHT22;3789;47.064;15.482;2022-07-09T09:16:19;22.80;86.20
7496;DHT22;3789;47.064;15.482;2022-07-09T09:18:48;22.80;87.60
7496;DHT22;3789;47.064;15.482;2022-07-09T09:21:19;23.50;90.90
7496;DHT22;3789;47.064;15.482;2022-07-09T09:23:54;24.10;88.30
7496;DHT22;3789;47.064;15.482;2022-07-09T09:26:26;24.70;86.60
7496;DHT22;3789;47.064;15.482;2022-07-09T09:28:59;24.70;91.60
7496;DHT22;3789;47.064;15.482;2022-07-09T09:31:32;24.90;84.60
7496;DHT22;3789;47.064;15.482;2022-07-09T09:36:38;24.40;91.30
7496;DHT22;3789;47.064;15.482;2022-07-09T09:41:40;25.80;90.30
7496;DHT22;3789;47.064;15.482;2022-07-09T09:44:34;26.00;89.50
7496;DHT22;3789;47.064;15.482;2022-07-09T09:47:05;25.90;87.00
7496;DHT22;3789;47.064;15.482;2022-07-09T09:49:34;25.80;84.20
7496;DHT22;3789;47.064;15.482;2022-07-09T09:54:37;25.60;87.10
7496;DHT22;3789;47.064;15.482;2022-07-09T09:57:09;25.70;90.30
7496;DHT22;3789;47.064;15.482;2022-07-09T09:59:38;25.80;82.60
7496;DHT22;3789;47.064;15.482;2022-07-09T10:02:06;25.90;88.60
7496;DHT22;3789;47.064;15.482;2022-07-09T10:04:36;26.30;87.10
7496;DHT22;3789;47.064;15.482;2022-07-09T10:07:07;26.50;88.50
7496;DHT22;3789;47.064;15.482;2022-07-09T10:09:35;26.80;88.60
7496;DHT22;3789;47.064;15.482;2022-07-09T10:12:02;27.00;84.90
7496;DHT22;3789;47.064;15.482;2022-07-09T10:14:36;27.10;85.60
7496;DHT22;3789;47.064;15.482;2022-07-09T10:17:14;27.20;84.60
7496;DHT22;3789;47.064;15.482;2022-07-09T10:22:44;27.00;83.30
7496;DHT22;3789;47.064;15.482;2022-07-09T10:25:28;26.90;83.60
7496;DHT22;3789;47.064;15.482;2022-07-09T10:27:56;26.90;81.00
7496;DHT22;3789;47.064;15.482;2022-07-09T10:30:28;26.40;81.80
7496;DHT22;3789;47.064;15.482;2022-07-09T10:33:21;26.50;88.70
7496;DHT22;3789;47.064;15.482;2022-07-09T10:35:52;26.90;85.00
7496;DHT22;3789;47.064;15.482;2022-07-09T10:38:20;27.00;83.10
7496;DHT22;3789;47.064;15.482;2022-07-09T10:40:58;27.00;82.90
7496;DHT22;3789;47.064;15.482;2022-07-09T10:43:43;27.00;84.00
7496;DHT22;3789;47.064;15.482;2022-07-09T10:46:16;27.10;82.00
7496;DHT22;3789;47.064;15.482;2022-07-09T10:48:47;26.90;79.60
7496;DHT22;3789;47.064;15.482;2022-07-09T10:51:22;26.70;82.20
7496;DHT22;3789;47.064;15.482;2022-07-09T10:53:50;26.70;83.20
7496;DHT22;3789;47.064;15.482;2022-07-09T10:56:21;26.60;82.90
7496;DHT22;3789;47.064;15.482;2022-07-09T10:58:49;26.30;81.40
7496;DHT22;3789;47.064;15.482;2022-07-09T11:01:19;26.20;84.70
7496;DHT22;3789;47.064;15.482;2022-07-09T11:03:49;25.90;81.20
7496;DHT22;3789;47.064;15.482;2022-07-09T11:06:18;25.70;82.30
7496;DHT22;3789;47.064;15.482;2022-07-09T11:08:45;25.60;85.70
7496;DHT22;3789;47.064;15.482;2022-07-09T11:11:23;25.70;84.90
7496;DHT22;3789;47.064;15.482;2022-07-09T11:13:51;25.70;82.90
7496;DHT22;3789;47.064;15.482;2022-07-09T11:16:23;25.70;82.50
7496;DHT22;3789;47.064;15.482;2022-07-09T11:18:51;25.80;84.40
7496;DHT22;3789;47.064;15.482;2022-07-09T11:21:25;25.50;84.00
7496;DHT22;3789;47.064;15.482;2022-07-09T11:23:53;25.70;84.30
7496;DHT22;3789;47.064;15.482;2022-07-09T11:26:20;25.90;86.40
7496;DHT22;3789;47.064;15.482;2022-07-09T11:28:47;26.10;88.60
7496;DHT22;3789;47.064;15.482;2022-07-09T11:31:16;26.20;86.00
7496;DHT22;3789;47.064;15.482;2022-07-09T11:33:44;25.80;79.10
7496;DHT22;3789;47.064;15.482;2022-07-09T11:36:43;25.10;79.20
7496;DHT22;3789;47.064;15.482;2022-07-09T11:39:31;24.40;83.80
7496;DHT22;3789;47.064;15.482;2022-07-09T11:42:01;24.30;84.00
7496;DHT22;3789;47.064;15.482;2022-07-09T11:44:33;24.60;83.60
7496;DHT22;3789;47.064;15.482;2022-07-09T11:47:06;24.50;81.10
7496;DHT22;3789;47.064;15.482;2022-07-09T11:49:39;24.50;83.30
7496;DHT22;3789;47.064;15.482;2022-07-09T11:52:25;24.90;86.30
7496;DHT22;3789;47.064;15.482;2022-07-09T11:57:28;25.30;84.90
7496;DHT22;3789;47.064;15.482;2022-07-09T11:59:56;25.30;84.50
7496;DHT22;3789;47.064;15.482;2022-07-09T12:02:24;24.80;81.80
7496;DHT22;3789;47.064;15.482;2022-07-09T12:04:51;23.90;80.50
7496;DHT22;3789;47.064;15.482;2022-07-09T12:07:19;24.20;85.20
7496;DHT22;3789;47.064;15.482;2022-07-09T12:09:46;24.50;84.30
7496;DHT22;3789;47.064;15.482;2022-07-09T12:12:13;24.50;81.40
7496;DHT22;3789;47.064;15.482;2022-07-09T12:14:40;24.60;80.70
7496;DHT22;3789;47.064;15.482;2022-07-09T12:17:23;24.10;79.10
7496;DHT22;3789;47.064;15.482;2022-07-09T12:19:52;23.70;86.30
7496;DHT22;3789;47.064;15.482;2022-07-09T12:22:19;24.00;82.20
7496;DHT22;3789;47.064;15.482;2022-07-09T12:24:47;23.70;80.80
7496;DHT22;3789;47.064;15.482;2022-07-09T12:27:14;23.70;81.60
7496;DHT22;3789;47.064;15.482;2022-07-09T12:29:50;23.40;79.50
7496;DHT22;3789;47.064;15.482;2022-07-09T12:32:17;23.00;79.50
7496;DHT22;3789;47.064;15.482;2022-07-09T12:34:44;22.90;79.70
7496;DHT22;3789;47.064;15.482;2022-07-09T12:37:11;22.90;79.70
7496;DHT22;3789;47.064;15.482;2022-07-09T12:39:38;23.10;83.60
7496;DHT22;3789;47.064;15.482;2022-07-09T12:42:05;23.50;86.60
7496;DHT22;3789;47.064;15.482;2022-07-09T12:44:33;23.60;81.50
7496;DHT22;3789;47.064;15.482;2022-07-09T12:47:00;23.50;79.70
7496;DHT22;3789;47.064;15.482;2022-07-09T12:49:27;23.40;80.00
7496;DHT22;3789;47.064;15.482;2022-07-09T12:51:54;23.50;86.20
7496;DHT22;3789;47.064;15.482;2022-07-09T12:54:21;23.50;79.90
7496;DHT22;3789;47.064;15.482;2022-07-09T12:56:48;23.30;81.30
7496;DHT22;3789;47.064;15.482;2022-07-09T12:59:36;23.40;81.60
7496;DHT22;3789;47.064;15.482;2022-07-09T13:02:04;23.60;81.00
7496;DHT22;3789;47.064;15.482;2022-07-09T13:04:32;23.70;84.60
7496;DHT22;3789;47.064;15.482;2022-07-09T13:06:59;24.00;80.00
7496;DHT22;3789;47.064;15.482;2022-07-09T13:09:26;24.30;82.70
7496;DHT22;3789;47.064;15.482;2022-07-09T13:11:54;24.50;86.30
7496;DHT22;3789;47.064;15.482;2022-07-09T13:14:21;24.70;80.10
7496;DHT22;3789;47.064;15.482;2022-07-09T13:16:48;24.90;80.30
7496;DHT22;3789;47.064;15.482;2022-07-09T13:19:35;24.80;81.20
7496;DHT22;3789;47.064;15.482;2022-07-09T13:22:02;24.90;79.60
7496;DHT22;3789;47.064;15.482;2022-07-09T13:24:30;25.10;82.10
7496;DHT22;3789;47.064;15.482;2022-07-09T13:26:57;25.20;78.10
7496;DHT22;3789;47.064;15.482;2022-07-09T13:29:24;25.30;80.20
7496;DHT22;3789;47.064;15.482;2022-07-09T13:31:51;25.50;81.50
7496;DHT22;3789;47.064;15.482;2022-07-09T13:34:19;25.50;80.40
7496;DHT22;3789;47.064;15.482;2022-07-09T13:36:46;25.60;82.40
7496;DHT22;3789;47.064;15.482;2022-07-09T13:39:13;25.70;81.10
7496;DHT22;3789;47.064;15.482;2022-07-09T13:41:40;25.50;78.50
7496;DHT22;3789;47.064;15.482;2022-07-09T13:44:07;25.60;81.30
7496;DHT22;3789;47.064;15.482;2022-07-09T13:46:34;25.50;78.50
7496;DHT22;3789;47.064;15.482;2022-07-09T13:49:02;25.50;78.70
7496;DHT22;3789;47.064;15.482;2022-07-09T13:51:29;24.90;76.10
7496;DHT22;3789;47.064;15.482;2022-07-09T13:53:56;24.60;75.20
7496;DHT22;3789;47.064;15.482;2022-07-09T13:56:24;24.80;80.80
7496;DHT22;3789;47.064;15.482;2022-07-09T13:58:51;24.90;79.00
7496;DHT22;3789;47.064;15.482;2022-07-09T14:01:18;25.00;77.00
7496;DHT22;3789;47.064;15.482;2022-07-09T14:03:47;25.10;77.40
7496;DHT22;3789;47.064;15.482;2022-07-09T14:06:14;24.60;78.30
7496;DHT22;3789;47.064;15.482;2022-07-09T14:09:01;24.40;78.60
7496;DHT22;3789;47.064;15.482;2022-07-09T14:11:28;24.10;78.50
7496;DHT22;3789;47.064;15.482;2022-07-09T14:13:55;23.80;78.10
7496;DHT22;3789;47.064;15.482;2022-07-09T14:16:24;23.60;79.00
7496;DHT22;3789;47.064;15.482;2022-07-09T14:18:52;23.60;76.70
7496;DHT22;3789;47.064;15.482;2022-07-09T14:21:19;23.50;74.70
7496;DHT22;3789;47.064;15.482;2022-07-09T14:23:46;23.50;79.00
7496;DHT22;3789;47.064;15.482;2022-07-09T14:26:16;23.70;75.80
7496;DHT22;3789;47.064;15.482;2022-07-09T14:28:43;23.60;75.20
7496;DHT22;3789;47.064;15.482;2022-07-09T14:31:11;23.70;80.90
7496;DHT22;3789;47.064;15.482;2022-07-09T14:33:39;23.70;74.50
7496;DHT22;3789;47.064;15.482;2022-07-09T14:36:06;23.50;76.80
7496;DHT22;3789;47.064;15.482;2022-07-09T14:38:33;23.40;76.70
7496;DHT22;3789;47.064;15.482;2022-07-09T14:41:01;23.40;75.70
7496;DHT22;3789;47.064;15.482;2022-07-09T14:43:28;23.40;78.90
7496;DHT22;3789;47.064;15.482;2022-07-09T14:45:55;23.40;76.60
7496;DHT22;3789;47.064;15.482;2022-07-09T14:48:22;23.40;76.90
7496;DHT22;3789;47.064;15.482;2022-07-09T14:50:50;23.50;80.70
7496;DHT22;3789;47.064;15.482;2022-07-09T14:53:18;23.80;79.90
7496;DHT22;3789;47.064;15.482;2022-07-09T14:55:46;24.10;81.70
7496;DHT22;3789;47.064;15.482;2022-07-09T14:58:13;24.20;80.00
7496;DHT22;3789;47.064;15.482;2022-07-09T15:00:40;24.30;81.30
7496;DHT22;3789;47.064;15.482;2022-07-09T15:03:08;24.40;79.00
7496;DHT22;3789;47.064;15.482;2022-07-09T15:05:36;24.40;77.40
7496;DHT22;3789;47.064;15.482;2022-07-09T15:08:12;24.50;78.50
7496;DHT22;3789;47.064;15.482;2022-07-09T15:10:40;24.60;77.30
7496;DHT22;3789;47.064;15.482;2022-07-09T15:13:08;24.50;77.10
7496;DHT22;3789;47.064;15.482;2022-07-09T15:15:36;24.50;79.90
7496;DHT22;3789;47.064;15.482;2022-07-09T15:18:04;24.70;79.10
7496;DHT22;3789;47.064;15.482;2022-07-09T15:20:32;24.70;78.80
7496;DHT22;3789;47.064;15.482;2022-07-09T15:23:00;24.70;78.50
7496;DHT22;3789;47.064;15.482;2022-07-09T15:25:28;24.80;77.70
7496;DHT22;3789;47.064;15.482;2022-07-09T15:27:55;24.80;77.80
7496;DHT22;3789;47.064;15.482;2022-07-09T15:30:23;24.70;79.20
7496;DHT22;3789;47.064;15.482;2022-07-09T15:32:50;24.70;79.70
7496;DHT22;3789;47.064;15.482;2022-07-09T15:35:18;24.70;79.70
7496;DHT22;3789;47.064;15.482;2022-07-09T15:37:45;24.60;79.40
7496;DHT22;3789;47.064;15.482;2022-07-09T15:40:12;24.60;79.80
7496;DHT22;3789;47.064;15.482;2022-07-09T15:42:42;24.60;80.90
7496;DHT22;3789;47.064;15.482;2022-07-09T15:45:11;24.50;78.60
7496;DHT22;3789;47.064;15.482;2022-07-09T15:47:39;24.50;78.60
7496;DHT22;3789;47.064;15.482;2022-07-09T15:50:11;24.10;78.30
7496;DHT22;3789;47.064;15.482;2022-07-09T15:52:38;24.10;79.20
7496;DHT22;3789;47.064;15.482;2022-07-09T15:55:10;23.80;77.40
7496;DHT22;3789;47.064;15.482;2022-07-09T15:57:38;23.70;79.20
7496;DHT22;3789;47.064;15.482;2022-07-09T16:00:10;23.60;77.60
7496;DHT22;3789;47.064;15.482;2022-07-09T16:02:39;23.50;80.00
7496;DHT22;3789;47.064;15.482;2022-07-09T16:05:08;23.80;81.40
7496;DHT22;3789;47.064;15.482;2022-07-09T16:07:39;24.10;81.00
7496;DHT22;3789;47.064;15.482;2022-07-09T16:10:06;24.20;79.80